LGKF/EFL METAR and TAF weather

Enter ICAO airport designator
Station Type Date Time Source
LGKF METAR 2022/06/30 13:50 UTC NOAA

LGKF 301350Z 00000KT CAVOK 31/22 Q1012


Station Type Date Time Source
LGKF Decoded METAR 2022/06/30 13:50 UTC NOAA

Kefalhnia Airport , Greece (LGKF) 38-07N 020-30E 22M
Jun 30, 2022 - 09:50 AM EDT / 2022.06.30 1350 UTC
Wind: Calm:0
Visibility: greater than 7 mile(s):0
Temperature: 87 F (31 C)
Heat index: 92.3 F (33.5 C):1
Dew Point: 71 F (22 C)
Relative Humidity: 58%
Pressure (altimeter): 29.88 in. Hg (1012 hPa)
ob: LGKF 301350Z 00000KT CAVOK 31/22 Q1012
cycle: 14

Station Type Date Time Source
LGKF TAF 2011/03/20 15:06 UTC NOAA

TAF LGKF 201400Z 2015/2103 05012KT 9999 FEW020 SCT080 PROB30
TEMPO 2015/2003 6000 RA SCT020 BKN060 PROB30
TEMPO 2015/2021 4000 TSRA SCT015 FEW018CB BKN025

Example: see airport list